Aviation Digital Data Service (ADDS)

Output produced by METARs form (0317 UTC 29 September 2016)
found at http://aviationweather.gov/adds/metars/
 
KJHW 290301Z 2903/2924 11010KT P6SM SCT040 
     FM290800 09008KT 6SM -SHRA OVC025 
     FM291000 09008KT 6SM -SHRA OVC015 
     FM291200 09011KT 4SM SHRA BR OVC007 
     FM292100 10012G20KT 6SM -SHRA OVC007 AMD LTD TO CLD VIS AND WIND